sensor_id;sensor_type;location;lat;lon;timestamp;P1;durP1;ratioP1;P2;durP2;ratioP2
24084;SDS011;12268;52.110;5.548;2022-11-11T00:00:26;19.70;;;8.75;;
24084;SDS011;12268;52.110;5.548;2022-11-11T00:02:53;16.98;;;9.18;;
24084;SDS011;12268;52.110;5.548;2022-11-11T00:05:20;18.25;;;9.02;;
24084;SDS011;12268;52.110;5.548;2022-11-11T00:07:46;19.38;;;8.98;;
24084;SDS011;12268;52.110;5.548;2022-11-11T00:10:11;14.77;;;8.32;;
24084;SDS011;12268;52.110;5.548;2022-11-11T00:12:37;17.90;;;9.40;;
24084;SDS011;12268;52.110;5.548;2022-11-11T00:15:02;19.10;;;9.57;;
24084;SDS011;12268;52.110;5.548;2022-11-11T00:17:28;17.38;;;10.18;;
24084;SDS011;12268;52.110;5.548;2022-11-11T00:20:12;20.20;;;9.73;;
24084;SDS011;12268;52.110;5.548;2022-11-11T00:22:56;21.15;;;10.73;;
24084;SDS011;12268;52.110;5.548;2022-11-11T00:25:40;25.63;;;11.20;;
24084;SDS011;12268;52.110;5.548;2022-11-11T00:28:05;23.25;;;11.65;;
24084;SDS011;12268;52.110;5.548;2022-11-11T00:30:31;21.50;;;12.15;;
24084;SDS011;12268;52.110;5.548;2022-11-11T00:32:57;26.10;;;12.05;;
24084;SDS011;12268;52.110;5.548;2022-11-11T00:35:22;20.52;;;11.93;;
24084;SDS011;12268;52.110;5.548;2022-11-11T00:38:07;24.40;;;13.43;;
24084;SDS011;12268;52.110;5.548;2022-11-11T00:40:35;23.60;;;12.73;;
24084;SDS011;12268;52.110;5.548;2022-11-11T00:43:01;28.38;;;12.85;;
24084;SDS011;12268;52.110;5.548;2022-11-11T00:45:26;24.00;;;13.30;;
24084;SDS011;12268;52.110;5.548;2022-11-11T00:47:52;25.50;;;14.30;;
24084;SDS011;12268;52.110;5.548;2022-11-11T00:50:37;23.98;;;13.57;;
24084;SDS011;12268;52.110;5.548;2022-11-11T00:53:25;24.48;;;13.23;;
24084;SDS011;12268;52.110;5.548;2022-11-11T00:55:53;29.27;;;15.82;;
24084;SDS011;12268;52.110;5.548;2022-11-11T00:58:19;29.45;;;14.68;;
24084;SDS011;12268;52.110;5.548;2022-11-11T01:00:46;29.33;;;16.00;;
24084;SDS011;12268;52.110;5.548;2022-11-11T01:03:14;28.27;;;16.05;;
24084;SDS011;12268;52.110;5.548;2022-11-11T01:05:40;27.80;;;15.65;;
24084;SDS011;12268;52.110;5.548;2022-11-11T01:08:05;28.10;;;16.17;;
24084;SDS011;12268;52.110;5.548;2022-11-11T01:10:31;29.63;;;16.67;;
24084;SDS011;12268;52.110;5.548;2022-11-11T01:13:03;27.88;;;15.73;;
24084;SDS011;12268;52.110;5.548;2022-11-11T01:15:36;29.08;;;16.55;;
24084;SDS011;12268;52.110;5.548;2022-11-11T01:18:03;29.55;;;17.10;;
24084;SDS011;12268;52.110;5.548;2022-11-11T01:20:29;28.08;;;16.08;;
24084;SDS011;12268;52.110;5.548;2022-11-11T01:22:54;29.58;;;17.33;;
24084;SDS011;12268;52.110;5.548;2022-11-11T01:25:20;33.90;;;18.23;;
24084;SDS011;12268;52.110;5.548;2022-11-11T01:27:46;30.65;;;17.48;;
24084;SDS011;12268;52.110;5.548;2022-11-11T01:30:11;32.78;;;16.98;;
24084;SDS011;12268;52.110;5.548;2022-11-11T01:32:38;32.22;;;18.30;;
24084;SDS011;12268;52.110;5.548;2022-11-11T01:35:04;34.00;;;19.27;;
24084;SDS011;12268;52.110;5.548;2022-11-11T01:37:34;32.95;;;19.30;;
24084;SDS011;12268;52.110;5.548;2022-11-11T01:40:00;37.00;;;18.98;;
24084;SDS011;12268;52.110;5.548;2022-11-11T01:42:26;35.85;;;18.77;;
24084;SDS011;12268;52.110;5.548;2022-11-11T01:44:52;39.80;;;19.88;;
24084;SDS011;12268;52.110;5.548;2022-11-11T01:47:17;33.97;;;18.98;;
24084;SDS011;12268;52.110;5.548;2022-11-11T01:49:54;34.35;;;18.75;;
24084;SDS011;12268;52.110;5.548;2022-11-11T01:52:26;35.60;;;19.00;;
24084;SDS011;12268;52.110;5.548;2022-11-11T01:55:05;34.85;;;19.65;;
24084;SDS011;12268;52.110;5.548;2022-11-11T01:57:56;34.45;;;18.65;;
24084;SDS011;12268;52.110;5.548;2022-11-11T02:00:25;36.78;;;20.08;;
24084;SDS011;12268;52.110;5.548;2022-11-11T02:02:58;35.00;;;18.90;;
24084;SDS011;12268;52.110;5.548;2022-11-11T02:05:29;35.28;;;19.15;;
24084;SDS011;12268;52.110;5.548;2022-11-11T02:08:08;35.15;;;19.92;;
24084;SDS011;12268;52.110;5.548;2022-11-11T02:10:36;37.03;;;20.95;;
24084;SDS011;12268;52.110;5.548;2022-11-11T02:13:04;40.70;;;20.17;;
24084;SDS011;12268;52.110;5.548;2022-11-11T02:15:54;39.25;;;19.58;;
24084;SDS011;12268;52.110;5.548;2022-11-11T02:18:20;37.50;;;19.23;;
24084;SDS011;12268;52.110;5.548;2022-11-11T02:20:45;35.33;;;20.00;;
24084;SDS011;12268;52.110;5.548;2022-11-11T02:23:21;36.05;;;19.73;;
24084;SDS011;12268;52.110;5.548;2022-11-11T02:25:51;37.35;;;20.30;;
24084;SDS011;12268;52.110;5.548;2022-11-11T02:28:20;39.80;;;21.20;;
24084;SDS011;12268;52.110;5.548;2022-11-11T02:30:47;40.30;;;21.73;;
24084;SDS011;12268;52.110;5.548;2022-11-11T02:33:13;39.42;;;20.40;;
24084;SDS011;12268;52.110;5.548;2022-11-11T02:35:42;38.97;;;19.38;;
24084;SDS011;12268;52.110;5.548;2022-11-11T02:40:40;35.72;;;19.73;;
24084;SDS011;12268;52.110;5.548;2022-11-11T02:43:25;36.60;;;18.27;;
24084;SDS011;12268;52.110;5.548;2022-11-11T02:45:51;35.25;;;20.83;;
24084;SDS011;12268;52.110;5.548;2022-11-11T02:48:17;40.85;;;20.08;;
24084;SDS011;12268;52.110;5.548;2022-11-11T02:50:43;37.20;;;20.80;;
24084;SDS011;12268;52.110;5.548;2022-11-11T02:53:09;40.20;;;19.73;;
24084;SDS011;12268;52.110;5.548;2022-11-11T02:55:34;36.78;;;19.63;;
24084;SDS011;12268;52.110;5.548;2022-11-11T02:58:00;36.22;;;19.08;;
24084;SDS011;12268;52.110;5.548;2022-11-11T03:00:26;34.80;;;18.88;;
24084;SDS011;12268;52.110;5.548;2022-11-11T03:02:51;40.40;;;20.65;;
24084;SDS011;12268;52.110;5.548;2022-11-11T03:05:17;38.97;;;18.63;;
24084;SDS011;12268;52.110;5.548;2022-11-11T03:07:42;36.83;;;19.42;;
24084;SDS011;12268;52.110;5.548;2022-11-11T03:10:08;37.42;;;18.75;;
24084;SDS011;12268;52.110;5.548;2022-11-11T03:12:34;34.15;;;18.10;;
24084;SDS011;12268;52.110;5.548;2022-11-11T03:14:59;37.97;;;19.13;;
24084;SDS011;12268;52.110;5.548;2022-11-11T03:17:25;31.45;;;17.45;;
24084;SDS011;12268;52.110;5.548;2022-11-11T03:25:28;33.17;;;17.00;;
24084;SDS011;12268;52.110;5.548;2022-11-11T03:28:07;32.60;;;17.83;;
24084;SDS011;12268;52.110;5.548;2022-11-11T03:30:35;36.88;;;17.25;;
24084;SDS011;12268;52.110;5.548;2022-11-11T03:33:01;38.35;;;17.77;;
24084;SDS011;12268;52.110;5.548;2022-11-11T03:35:27;32.72;;;16.38;;
24084;SDS011;12268;52.110;5.548;2022-11-11T03:37:53;30.75;;;16.05;;
24084;SDS011;12268;52.110;5.548;2022-11-11T03:40:37;31.48;;;16.77;;
24084;SDS011;12268;52.110;5.548;2022-11-11T03:43:03;31.23;;;16.10;;
24084;SDS011;12268;52.110;5.548;2022-11-11T03:45:29;36.10;;;17.52;;
24084;SDS011;12268;52.110;5.548;2022-11-11T03:47:54;31.23;;;16.10;;
24084;SDS011;12268;52.110;5.548;2022-11-11T03:50:20;28.80;;;16.17;;
24084;SDS011;12268;52.110;5.548;2022-11-11T03:52:46;34.53;;;16.88;;
24084;SDS011;12268;52.110;5.548;2022-11-11T03:55:12;29.67;;;16.73;;
24084;SDS011;12268;52.110;5.548;2022-11-11T03:57:39;30.20;;;16.05;;
24084;SDS011;12268;52.110;5.548;2022-11-11T04:00:12;25.40;;;15.25;;
24084;SDS011;12268;52.110;5.548;2022-11-11T04:02:40;33.80;;;16.65;;
24084;SDS011;12268;52.110;5.548;2022-11-11T04:05:24;28.73;;;15.88;;
24084;SDS011;12268;52.110;5.548;2022-11-11T04:08:13;32.33;;;15.75;;
24084;SDS011;12268;52.110;5.548;2022-11-11T04:10:59;29.23;;;15.82;;
24084;SDS011;12268;52.110;5.548;2022-11-11T04:13:28;35.42;;;16.92;;
24084;SDS011;12268;52.110;5.548;2022-11-11T04:16:14;27.25;;;15.52;;
24084;SDS011;12268;52.110;5.548;2022-11-11T04:18:40;28.15;;;15.65;;
24084;SDS011;12268;52.110;5.548;2022-11-11T04:21:24;29.13;;;15.88;;
24084;SDS011;12268;52.110;5.548;2022-11-11T04:24:09;31.25;;;16.77;;
24084;SDS011;12268;52.110;5.548;2022-11-11T04:26:55;29.65;;;16.85;;
24084;SDS011;12268;52.110;5.548;2022-11-11T04:29:22;28.73;;;15.52;;
24084;SDS011;12268;52.110;5.548;2022-11-11T04:34:43;34.28;;;16.02;;
24084;SDS011;12268;52.110;5.548;2022-11-11T04:37:10;30.92;;;15.80;;
24084;SDS011;12268;52.110;5.548;2022-11-11T04:39:36;34.58;;;16.15;;
24084;SDS011;12268;52.110;5.548;2022-11-11T04:42:21;29.40;;;16.58;;
24084;SDS011;12268;52.110;5.548;2022-11-11T04:44:47;30.45;;;17.00;;
24084;SDS011;12268;52.110;5.548;2022-11-11T04:47:31;34.90;;;16.95;;
24084;SDS011;12268;52.110;5.548;2022-11-11T04:49:56;33.55;;;16.10;;
24084;SDS011;12268;52.110;5.548;2022-11-11T04:52:22;36.63;;;17.38;;
24084;SDS011;12268;52.110;5.548;2022-11-11T04:54:50;30.63;;;15.65;;
24084;SDS011;12268;52.110;5.548;2022-11-11T04:57:39;29.40;;;16.88;;
24084;SDS011;12268;52.110;5.548;2022-11-11T05:00:06;35.60;;;16.85;;
24084;SDS011;12268;52.110;5.548;2022-11-11T05:02:33;25.95;;;14.68;;
24084;SDS011;12268;52.110;5.548;2022-11-11T05:05:18;30.70;;;16.63;;
24084;SDS011;12268;52.110;5.548;2022-11-11T05:07:43;29.25;;;16.55;;
24084;SDS011;12268;52.110;5.548;2022-11-11T05:10:28;25.98;;;15.38;;
24084;SDS011;12268;52.110;5.548;2022-11-11T05:12:53;32.80;;;16.70;;
24084;SDS011;12268;52.110;5.548;2022-11-11T05:15:39;32.75;;;15.48;;
24084;SDS011;12268;52.110;5.548;2022-11-11T05:18:25;30.67;;;15.38;;
24084;SDS011;12268;52.110;5.548;2022-11-11T05:21:11;32.05;;;16.05;;
24084;SDS011;12268;52.110;5.548;2022-11-11T05:23:46;31.02;;;15.00;;
24084;SDS011;12268;52.110;5.548;2022-11-11T05:26:31;31.38;;;15.80;;
24084;SDS011;12268;52.110;5.548;2022-11-11T05:28:56;31.13;;;14.90;;
24084;SDS011;12268;52.110;5.548;2022-11-11T05:31:22;29.35;;;15.43;;
24084;SDS011;12268;52.110;5.548;2022-11-11T05:33:48;31.33;;;14.18;;
24084;SDS011;12268;52.110;5.548;2022-11-11T05:36:13;27.80;;;13.93;;
24084;SDS011;12268;52.110;5.548;2022-11-11T05:38:38;26.48;;;14.10;;
24084;SDS011;12268;52.110;5.548;2022-11-11T05:41:04;30.98;;;14.93;;
24084;SDS011;12268;52.110;5.548;2022-11-11T05:43:31;31.15;;;14.70;;
24084;SDS011;12268;52.110;5.548;2022-11-11T05:45:56;27.83;;;14.38;;
24084;SDS011;12268;52.110;5.548;2022-11-11T05:48:22;28.25;;;14.32;;
24084;SDS011;12268;52.110;5.548;2022-11-11T05:50:47;27.48;;;14.55;;
24084;SDS011;12268;52.110;5.548;2022-11-11T05:53:13;27.60;;;14.32;;
24084;SDS011;12268;52.110;5.548;2022-11-11T05:55:39;26.30;;;14.63;;
24084;SDS011;12268;52.110;5.548;2022-11-11T05:58:04;30.05;;;14.25;;
24084;SDS011;12268;52.110;5.548;2022-11-11T06:00:30;31.15;;;14.60;;
24084;SDS011;12268;52.110;5.548;2022-11-11T10:24:34;20.25;;;11.30;;
24084;SDS011;12268;52.110;5.548;2022-11-11T10:27:06;17.75;;;10.90;;
24084;SDS011;12268;52.110;5.548;2022-11-11T10:29:43;18.95;;;10.90;;
24084;SDS011;12268;52.110;5.548;2022-11-11T10:32:23;18.15;;;11.60;;
24084;SDS011;12268;52.110;5.548;2022-11-11T10:34:56;18.42;;;10.40;;
24084;SDS011;12268;52.110;5.548;2022-11-11T10:37:38;16.15;;;10.10;;
24084;SDS011;12268;52.110;5.548;2022-11-11T10:40:08;18.63;;;10.75;;
24084;SDS011;12268;52.110;5.548;2022-11-11T10:42:48;17.33;;;10.23;;
24084;SDS011;12268;52.110;5.548;2022-11-11T10:45:19;15.65;;;10.15;;
24084;SDS011;12268;52.110;5.548;2022-11-11T10:55:45;16.95;;;9.38;;
24084;SDS011;12268;52.110;5.548;2022-11-11T10:58:19;18.95;;;9.30;;
24084;SDS011;12268;52.110;5.548;2022-11-11T11:01:00;15.27;;;9.00;;
24084;SDS011;12268;52.110;5.548;2022-11-11T11:03:35;15.68;;;9.40;;
24084;SDS011;12268;52.110;5.548;2022-11-11T11:08:36;14.32;;;9.73;;
24084;SDS011;12268;52.110;5.548;2022-11-11T11:11:32;14.65;;;8.98;;
24084;SDS011;12268;52.110;5.548;2022-11-11T11:14:05;16.27;;;9.07;;
24084;SDS011;12268;52.110;5.548;2022-11-11T11:16:41;13.43;;;9.55;;
24084;SDS011;12268;52.110;5.548;2022-11-11T11:19:22;16.08;;;9.25;;
24084;SDS011;12268;52.110;5.548;2022-11-11T11:21:52;15.35;;;10.23;;
24084;SDS011;12268;52.110;5.548;2022-11-11T11:24:21;14.02;;;8.98;;
24084;SDS011;12268;52.110;5.548;2022-11-11T11:26:51;12.43;;;9.13;;
24084;SDS011;12268;52.110;5.548;2022-11-11T11:31:54;11.75;;;9.05;;
24084;SDS011;12268;52.110;5.548;2022-11-11T11:34:21;17.75;;;9.68;;
24084;SDS011;12268;52.110;5.548;2022-11-11T11:37:03;17.58;;;10.00;;
24084;SDS011;12268;52.110;5.548;2022-11-11T11:39:38;15.85;;;10.10;;
24084;SDS011;12268;52.110;5.548;2022-11-11T11:42:05;16.73;;;10.23;;
24084;SDS011;12268;52.110;5.548;2022-11-11T11:44:31;19.55;;;10.15;;
24084;SDS011;12268;52.110;5.548;2022-11-11T11:47:20;18.48;;;9.57;;
24084;SDS011;12268;52.110;5.548;2022-11-11T11:56:02;16.42;;;10.15;;
24084;SDS011;12268;52.110;5.548;2022-11-11T12:03:57;20.10;;;11.52;;
24084;SDS011;12268;52.110;5.548;2022-11-11T12:06:34;17.30;;;10.57;;
24084;SDS011;12268;52.110;5.548;2022-11-11T12:14:47;19.55;;;10.77;;
24084;SDS011;12268;52.110;5.548;2022-11-11T12:22:40;20.08;;;10.60;;
24084;SDS011;12268;52.110;5.548;2022-11-11T12:28:37;16.58;;;10.52;;
24084;SDS011;12268;52.110;5.548;2022-11-11T12:36:33;25.02;;;10.48;;
24084;SDS011;12268;52.110;5.548;2022-11-11T12:39:08;18.33;;;10.02;;
24084;SDS011;12268;52.110;5.548;2022-11-11T12:41:39;17.38;;;9.85;;
24084;SDS011;12268;52.110;5.548;2022-11-11T12:44:14;15.70;;;9.50;;
24084;SDS011;12268;52.110;5.548;2022-11-11T12:49:31;16.95;;;10.25;;
24084;SDS011;12268;52.110;5.548;2022-11-11T12:52:23;17.48;;;10.68;;
24084;SDS011;12268;52.110;5.548;2022-11-11T12:58:14;19.60;;;9.93;;
24084;SDS011;12268;52.110;5.548;2022-11-11T13:03:57;15.55;;;9.77;;
24084;SDS011;12268;52.110;5.548;2022-11-11T13:06:47;16.45;;;9.25;;
24084;SDS011;12268;52.110;5.548;2022-11-11T13:12:20;15.00;;;9.48;;
24084;SDS011;12268;52.110;5.548;2022-11-11T13:17:26;22.00;;;10.43;;
24084;SDS011;12268;52.110;5.548;2022-11-11T13:19:55;19.23;;;9.35;;
24084;SDS011;12268;52.110;5.548;2022-11-11T13:24:50;14.73;;;9.25;;
24084;SDS011;12268;52.110;5.548;2022-11-11T13:29:54;15.63;;;8.93;;
24084;SDS011;12268;52.110;5.548;2022-11-11T13:32:31;16.48;;;9.02;;
24084;SDS011;12268;52.110;5.548;2022-11-11T13:35:09;15.40;;;8.80;;
24084;SDS011;12268;52.110;5.548;2022-11-11T13:37:48;15.50;;;8.43;;
24084;SDS011;12268;52.110;5.548;2022-11-11T13:40:23;16.45;;;8.63;;
24084;SDS011;12268;52.110;5.548;2022-11-11T13:42:50;19.67;;;8.80;;
24084;SDS011;12268;52.110;5.548;2022-11-11T13:45:25;14.07;;;8.18;;
24084;SDS011;12268;52.110;5.548;2022-11-11T13:47:59;14.38;;;8.27;;
24084;SDS011;12268;52.110;5.548;2022-11-11T13:50:30;16.20;;;8.48;;
24084;SDS011;12268;52.110;5.548;2022-11-11T13:53:01;15.30;;;9.10;;
24084;SDS011;12268;52.110;5.548;2022-11-11T13:55:30;14.18;;;8.63;;
24084;SDS011;12268;52.110;5.548;2022-11-11T13:58:17;17.63;;;8.90;;
24084;SDS011;12268;52.110;5.548;2022-11-11T14:00:56;14.25;;;8.48;;
24084;SDS011;12268;52.110;5.548;2022-11-11T14:06:27;16.25;;;9.20;;
24084;SDS011;12268;52.110;5.548;2022-11-11T14:13:51;13.60;;;7.70;;
24084;SDS011;12268;52.110;5.548;2022-11-11T14:21:46;13.27;;;7.93;;
24084;SDS011;12268;52.110;5.548;2022-11-11T14:24:21;14.52;;;7.65;;
24084;SDS011;12268;52.110;5.548;2022-11-11T14:29:37;15.38;;;7.93;;
24084;SDS011;12268;52.110;5.548;2022-11-11T14:40:23;12.30;;;7.05;;
24084;SDS011;12268;52.110;5.548;2022-11-11T14:42:51;12.35;;;7.03;;
24084;SDS011;12268;52.110;5.548;2022-11-11T14:47:54;11.75;;;7.72;;
24084;SDS011;12268;52.110;5.548;2022-11-11T14:52:59;13.85;;;7.15;;
24084;SDS011;12268;52.110;5.548;2022-11-11T14:55:38;14.85;;;8.57;;
24084;SDS011;12268;52.110;5.548;2022-11-11T14:58:14;13.90;;;8.10;;
24084;SDS011;12268;52.110;5.548;2022-11-11T15:03:23;18.25;;;8.70;;
24084;SDS011;12268;52.110;5.548;2022-11-11T15:11:11;17.70;;;9.18;;
24084;SDS011;12268;52.110;5.548;2022-11-11T15:30:21;14.93;;;8.60;;
24084;SDS011;12268;52.110;5.548;2022-11-11T15:32:56;15.40;;;8.00;;
24084;SDS011;12268;52.110;5.548;2022-11-11T15:35:28;14.07;;;7.97;;
24084;SDS011;12268;52.110;5.548;2022-11-11T15:38:05;14.32;;;7.72;;
24084;SDS011;12268;52.110;5.548;2022-11-11T15:40:49;17.45;;;8.52;;
24084;SDS011;12268;52.110;5.548;2022-11-11T15:43:19;14.65;;;8.07;;
24084;SDS011;12268;52.110;5.548;2022-11-11T15:45:53;17.00;;;7.65;;
24084;SDS011;12268;52.110;5.548;2022-11-11T15:48:28;14.20;;;7.53;;
24084;SDS011;12268;52.110;5.548;2022-11-11T15:50:57;13.80;;;8.02;;
24084;SDS011;12268;52.110;5.548;2022-11-11T15:53:23;13.20;;;7.10;;
24084;SDS011;12268;52.110;5.548;2022-11-11T15:55:52;13.70;;;7.13;;
24084;SDS011;12268;52.110;5.548;2022-11-11T15:58:26;14.18;;;7.47;;
24084;SDS011;12268;52.110;5.548;2022-11-11T16:00:59;15.98;;;7.22;;
24084;SDS011;12268;52.110;5.548;2022-11-11T16:03:32;13.32;;;7.15;;
24084;SDS011;12268;52.110;5.548;2022-11-11T16:06:09;11.07;;;6.60;;
24084;SDS011;12268;52.110;5.548;2022-11-11T16:08:36;13.50;;;6.93;;
24084;SDS011;12268;52.110;5.548;2022-11-11T16:11:05;14.77;;;7.70;;
24084;SDS011;12268;52.110;5.548;2022-11-11T16:13:35;12.88;;;6.90;;
24084;SDS011;12268;52.110;5.548;2022-11-11T16:16:08;10.63;;;6.35;;
24084;SDS011;12268;52.110;5.548;2022-11-11T16:18:45;12.70;;;6.28;;
24084;SDS011;12268;52.110;5.548;2022-11-11T16:24:03;12.52;;;6.25;;
24084;SDS011;12268;52.110;5.548;2022-11-11T16:26:31;12.57;;;7.38;;
24084;SDS011;12268;52.110;5.548;2022-11-11T16:28:58;12.15;;;6.43;;
24084;SDS011;12268;52.110;5.548;2022-11-11T16:33:59;16.83;;;7.25;;
24084;SDS011;12268;52.110;5.548;2022-11-11T16:37:01;11.10;;;6.70;;
24084;SDS011;12268;52.110;5.548;2022-11-11T16:39:32;11.15;;;6.15;;
24084;SDS011;12268;52.110;5.548;2022-11-11T16:41:59;13.27;;;6.57;;
24084;SDS011;12268;52.110;5.548;2022-11-11T16:47:02;13.98;;;6.53;;
24084;SDS011;12268;52.110;5.548;2022-11-11T16:49:32;12.80;;;6.55;;
24084;SDS011;12268;52.110;5.548;2022-11-11T16:52:14;14.65;;;6.82;;
24084;SDS011;12268;52.110;5.548;2022-11-11T16:54:49;11.13;;;6.53;;
24084;SDS011;12268;52.110;5.548;2022-11-11T16:57:20;13.88;;;6.55;;
24084;SDS011;12268;52.110;5.548;2022-11-11T16:59:56;13.00;;;6.93;;
24084;SDS011;12268;52.110;5.548;2022-11-11T17:02:26;14.63;;;6.45;;
24084;SDS011;12268;52.110;5.548;2022-11-11T17:04:56;14.07;;;7.22;;
24084;SDS011;12268;52.110;5.548;2022-11-11T17:10:12;13.65;;;7.00;;
24084;SDS011;12268;52.110;5.548;2022-11-11T17:12:47;11.85;;;6.38;;
24084;SDS011;12268;52.110;5.548;2022-11-11T17:15:16;13.82;;;6.90;;
24084;SDS011;12268;52.110;5.548;2022-11-11T17:17:43;16.20;;;8.20;;
24084;SDS011;12268;52.110;5.548;2022-11-11T17:20:11;15.63;;;7.95;;
24084;SDS011;12268;52.110;5.548;2022-11-11T17:22:53;21.27;;;8.45;;
24084;SDS011;12268;52.110;5.548;2022-11-11T17:25:20;17.05;;;8.23;;
24084;SDS011;12268;52.110;5.548;2022-11-11T17:27:46;15.43;;;9.15;;
24084;SDS011;12268;52.110;5.548;2022-11-11T17:30:11;17.05;;;9.43;;
24084;SDS011;12268;52.110;5.548;2022-11-11T17:32:38;17.83;;;8.35;;
24084;SDS011;12268;52.110;5.548;2022-11-11T17:35:03;19.25;;;8.80;;
24084;SDS011;12268;52.110;5.548;2022-11-11T17:37:32;14.98;;;8.10;;
24084;SDS011;12268;52.110;5.548;2022-11-11T17:39:59;18.60;;;9.50;;
24084;SDS011;12268;52.110;5.548;2022-11-11T17:42:26;15.98;;;8.35;;
24084;SDS011;12268;52.110;5.548;2022-11-11T17:44:53;17.25;;;7.90;;
24084;SDS011;12268;52.110;5.548;2022-11-11T17:47:18;12.40;;;7.35;;
24084;SDS011;12268;52.110;5.548;2022-11-11T17:49:44;17.45;;;7.80;;
24084;SDS011;12268;52.110;5.548;2022-11-11T17:52:10;15.52;;;8.57;;
24084;SDS011;12268;52.110;5.548;2022-11-11T17:54:35;13.90;;;8.05;;
24084;SDS011;12268;52.110;5.548;2022-11-11T17:57:01;13.02;;;7.82;;
24084;SDS011;12268;52.110;5.548;2022-11-11T17:59:26;12.20;;;7.20;;
24084;SDS011;12268;52.110;5.548;2022-11-11T18:01:53;16.50;;;8.13;;
24084;SDS011;12268;52.110;5.548;2022-11-11T18:04:19;12.20;;;7.85;;
24084;SDS011;12268;52.110;5.548;2022-11-11T18:06:44;22.40;;;8.73;;
24084;SDS011;12268;52.110;5.548;2022-11-11T18:09:10;14.07;;;7.68;;
24084;SDS011;12268;52.110;5.548;2022-11-11T18:11:35;13.82;;;7.45;;
24084;SDS011;12268;52.110;5.548;2022-11-11T18:14:01;17.08;;;7.80;;
24084;SDS011;12268;52.110;5.548;2022-11-11T18:16:27;17.17;;;7.45;;
24084;SDS011;12268;52.110;5.548;2022-11-11T18:18:52;12.27;;;6.70;;
24084;SDS011;12268;52.110;5.548;2022-11-11T18:21:23;14.40;;;7.95;;
24084;SDS011;12268;52.110;5.548;2022-11-11T18:23:49;17.48;;;7.53;;
24084;SDS011;12268;52.110;5.548;2022-11-11T18:26:15;15.50;;;7.32;;
24084;SDS011;12268;52.110;5.548;2022-11-11T18:28:41;15.82;;;6.85;;
24084;SDS011;12268;52.110;5.548;2022-11-11T18:31:07;13.05;;;8.02;;
24084;SDS011;12268;52.110;5.548;2022-11-11T18:33:37;13.98;;;7.68;;
24084;SDS011;12268;52.110;5.548;2022-11-11T18:36:09;16.42;;;7.78;;
24084;SDS011;12268;52.110;5.548;2022-11-11T18:38:37;15.25;;;8.55;;
24084;SDS011;12268;52.110;5.548;2022-11-11T18:41:07;15.05;;;7.82;;
24084;SDS011;12268;52.110;5.548;2022-11-11T18:43:38;16.02;;;7.97;;
24084;SDS011;12268;52.110;5.548;2022-11-11T18:46:09;16.45;;;7.30;;
24084;SDS011;12268;52.110;5.548;2022-11-11T18:48:37;14.82;;;7.65;;
24084;SDS011;12268;52.110;5.548;2022-11-11T18:51:03;12.90;;;7.70;;
24084;SDS011;12268;52.110;5.548;2022-11-11T18:53:30;16.88;;;7.55;;
24084;SDS011;12268;52.110;5.548;2022-11-11T18:56:00;17.38;;;7.68;;
24084;SDS011;12268;52.110;5.548;2022-11-11T18:58:28;12.38;;;7.85;;
24084;SDS011;12268;52.110;5.548;2022-11-11T19:01:01;16.55;;;7.47;;
24084;SDS011;12268;52.110;5.548;2022-11-11T19:03:32;12.82;;;7.40;;
24084;SDS011;12268;52.110;5.548;2022-11-11T19:05:58;12.43;;;7.32;;
24084;SDS011;12268;52.110;5.548;2022-11-11T19:08:26;15.30;;;7.93;;
24084;SDS011;12268;52.110;5.548;2022-11-11T19:10:52;12.95;;;6.90;;
24084;SDS011;12268;52.110;5.548;2022-11-11T19:13:18;15.18;;;7.03;;
24084;SDS011;12268;52.110;5.548;2022-11-11T19:15:43;12.27;;;7.22;;
24084;SDS011;12268;52.110;5.548;2022-11-11T19:18:09;14.90;;;7.53;;
24084;SDS011;12268;52.110;5.548;2022-11-11T19:20:35;13.68;;;6.90;;
24084;SDS011;12268;52.110;5.548;2022-11-11T19:23:01;10.88;;;7.18;;
24084;SDS011;12268;52.110;5.548;2022-11-11T19:25:27;13.20;;;7.70;;
24084;SDS011;12268;52.110;5.548;2022-11-11T19:27:52;15.30;;;8.50;;
24084;SDS011;12268;52.110;5.548;2022-11-11T19:30:18;16.90;;;8.48;;
24084;SDS011;12268;52.110;5.548;2022-11-11T19:32:44;16.50;;;9.23;;
24084;SDS011;12268;52.110;5.548;2022-11-11T19:35:09;23.25;;;11.18;;
24084;SDS011;12268;52.110;5.548;2022-11-11T19:37:35;20.85;;;11.98;;
24084;SDS011;12268;52.110;5.548;2022-11-11T19:40:01;17.23;;;10.60;;
24084;SDS011;12268;52.110;5.548;2022-11-11T19:42:26;25.67;;;11.60;;
24084;SDS011;12268;52.110;5.548;2022-11-11T19:44:52;25.15;;;11.32;;
24084;SDS011;12268;52.110;5.548;2022-11-11T19:47:17;22.70;;;12.18;;
24084;SDS011;12268;52.110;5.548;2022-11-11T19:49:43;19.02;;;10.77;;
24084;SDS011;12268;52.110;5.548;2022-11-11T19:52:08;19.55;;;10.57;;
24084;SDS011;12268;52.110;5.548;2022-11-11T19:54:34;21.98;;;10.02;;
24084;SDS011;12268;52.110;5.548;2022-11-11T19:57:00;15.52;;;9.02;;
24084;SDS011;12268;52.110;5.548;2022-11-11T19:59:25;18.05;;;9.57;;
24084;SDS011;12268;52.110;5.548;2022-11-11T20:01:51;17.70;;;8.85;;
24084;SDS011;12268;52.110;5.548;2022-11-11T20:04:16;19.30;;;9.38;;
24084;SDS011;12268;52.110;5.548;2022-11-11T20:06:41;17.50;;;9.98;;
24084;SDS011;12268;52.110;5.548;2022-11-11T20:09:07;18.08;;;9.93;;
24084;SDS011;12268;52.110;5.548;2022-11-11T20:11:34;15.70;;;9.35;;
24084;SDS011;12268;52.110;5.548;2022-11-11T20:14:02;16.90;;;9.73;;
24084;SDS011;12268;52.110;5.548;2022-11-11T20:16:29;19.30;;;9.60;;
24084;SDS011;12268;52.110;5.548;2022-11-11T20:18:55;15.48;;;9.10;;
24084;SDS011;12268;52.110;5.548;2022-11-11T20:21:21;16.35;;;9.15;;
24084;SDS011;12268;52.110;5.548;2022-11-11T20:23:47;18.08;;;8.93;;
24084;SDS011;12268;52.110;5.548;2022-11-11T20:26:13;25.52;;;11.32;;
24084;SDS011;12268;52.110;5.548;2022-11-11T20:28:40;19.60;;;10.25;;
24084;SDS011;12268;52.110;5.548;2022-11-11T20:31:16;24.17;;;11.65;;
24084;SDS011;12268;52.110;5.548;2022-11-11T20:33:42;26.42;;;11.35;;
24084;SDS011;12268;52.110;5.548;2022-11-11T20:36:09;18.20;;;11.35;;
24084;SDS011;12268;52.110;5.548;2022-11-11T20:38:36;19.70;;;11.05;;
24084;SDS011;12268;52.110;5.548;2022-11-11T20:41:03;23.40;;;11.90;;
24084;SDS011;12268;52.110;5.548;2022-11-11T20:43:34;20.13;;;12.07;;
24084;SDS011;12268;52.110;5.548;2022-11-11T20:46:01;23.92;;;11.68;;
24084;SDS011;12268;52.110;5.548;2022-11-11T20:48:33;25.48;;;11.52;;
24084;SDS011;12268;52.110;5.548;2022-11-11T20:51:21;26.38;;;11.10;;
24084;SDS011;12268;52.110;5.548;2022-11-11T20:53:46;22.25;;;11.73;;
24084;SDS011;12268;52.110;5.548;2022-11-11T20:56:16;20.05;;;11.70;;
24084;SDS011;12268;52.110;5.548;2022-11-11T20:58:42;21.00;;;11.75;;
24084;SDS011;12268;52.110;5.548;2022-11-11T21:01:11;20.67;;;12.77;;
24084;SDS011;12268;52.110;5.548;2022-11-11T21:03:38;23.38;;;12.50;;
24084;SDS011;12268;52.110;5.548;2022-11-11T21:06:08;23.40;;;13.13;;
24084;SDS011;12268;52.110;5.548;2022-11-11T21:08:39;27.88;;;13.27;;
24084;SDS011;12268;52.110;5.548;2022-11-11T21:11:07;23.35;;;12.80;;
24084;SDS011;12268;52.110;5.548;2022-11-11T21:13:33;19.08;;;11.35;;
24084;SDS011;12268;52.110;5.548;2022-11-11T21:16:10;19.17;;;11.63;;
24084;SDS011;12268;52.110;5.548;2022-11-11T21:18:46;21.90;;;11.40;;
24084;SDS011;12268;52.110;5.548;2022-11-11T21:23:46;22.05;;;11.07;;
24084;SDS011;12268;52.110;5.548;2022-11-11T21:26:14;17.65;;;11.15;;
24084;SDS011;12268;52.110;5.548;2022-11-11T21:28:41;21.88;;;11.98;;
24084;SDS011;12268;52.110;5.548;2022-11-11T21:31:09;22.80;;;11.05;;